createdAt,value
2022-10-04T00:02:13.880Z,8.02
2022-10-04T00:04:58.058Z,8.57
2022-10-04T00:07:28.746Z,7.80
2022-10-04T00:10:18.512Z,7.57
2022-10-04T00:12:56.463Z,7.95
2022-10-04T00:15:27.711Z,11.15
2022-10-04T00:18:12.571Z,11.50
2022-10-04T00:20:50.529Z,9.60
2022-10-04T00:23:23.265Z,8.63
2022-10-04T00:25:51.300Z,7.90
2022-10-04T00:28:20.898Z,11.77
2022-10-04T00:31:13.826Z,8.35
2022-10-04T00:33:40.302Z,10.75
2022-10-04T00:36:40.738Z,8.77
2022-10-04T00:39:07.238Z,10.15
2022-10-04T00:41:41.459Z,11.57
2022-10-04T00:44:22.589Z,13.10
2022-10-04T00:46:50.257Z,11.63
2022-10-04T00:49:22.413Z,9.43
2022-10-04T00:51:56.177Z,13.32
2022-10-04T00:54:29.644Z,8.50
2022-10-04T00:57:00.154Z,8.00
2022-10-04T00:59:29.671Z,8.85
2022-10-04T01:02:02.100Z,6.87
2022-10-04T01:04:39.860Z,12.13
2022-10-04T01:07:08.820Z,9.63
2022-10-04T01:09:43.379Z,12.13
2022-10-04T01:12:23.816Z,7.85
2022-10-04T01:15:04.093Z,7.87
2022-10-04T01:17:30.585Z,12.25
2022-10-04T01:19:57.097Z,8.23
2022-10-04T01:22:41.929Z,12.20
2022-10-04T01:25:09.467Z,10.80
2022-10-04T01:27:38.065Z,8.50
2022-10-04T01:30:09.133Z,11.85
2022-10-04T01:32:37.575Z,11.55
2022-10-04T01:35:05.103Z,11.05
2022-10-04T01:37:31.691Z,10.90
2022-10-04T01:39:58.775Z,9.37
2022-10-04T01:42:32.482Z,8.77
2022-10-04T01:45:10.314Z,13.02
2022-10-04T01:47:51.253Z,10.13
2022-10-04T01:50:30.096Z,8.38
2022-10-04T01:53:11.777Z,9.13
2022-10-04T01:55:41.717Z,7.85
2022-10-04T01:58:08.127Z,8.32
2022-10-04T02:00:38.762Z,8.00
2022-10-04T02:03:13.345Z,10.07
2022-10-04T02:05:44.823Z,9.17
2022-10-04T02:08:16.385Z,7.53
2022-10-04T02:10:45.527Z,9.20
2022-10-04T02:13:19.038Z,9.68
2022-10-04T02:15:47.726Z,9.77
2022-10-04T02:18:18.594Z,9.53
2022-10-04T02:20:47.640Z,11.63
2022-10-04T02:23:18.157Z,8.88
2022-10-04T02:25:44.640Z,10.55
2022-10-04T02:28:13.997Z,13.95
2022-10-04T02:30:44.702Z,8.97
2022-10-04T02:33:11.487Z,10.13
2022-10-04T02:35:45.186Z,11.48
2022-10-04T02:38:25.308Z,8.50
2022-10-04T02:40:57.746Z,10.77
2022-10-04T02:43:34.843Z,13.50
2022-10-04T02:46:45.872Z,8.45
2022-10-04T02:49:24.105Z,10.77
2022-10-04T02:51:58.170Z,10.10
2022-10-04T02:54:30.414Z,8.68
2022-10-04T02:56:58.209Z,8.93
2022-10-04T02:59:25.098Z,12.80
2022-10-04T03:01:55.443Z,11.70
2022-10-04T03:04:26.884Z,10.10
2022-10-04T03:06:55.071Z,10.25
2022-10-04T03:09:29.485Z,13.53
2022-10-04T03:11:56.993Z,12.02
2022-10-04T03:14:26.715Z,12.05
2022-10-04T03:17:00.966Z,9.45
2022-10-04T03:19:31.011Z,12.35
2022-10-04T03:22:09.575Z,9.10
2022-10-04T03:24:50.159Z,12.98
2022-10-04T03:27:21.667Z,11.93
2022-10-04T03:29:50.415Z,12.70
2022-10-04T03:32:19.020Z,12.95
2022-10-04T03:34:55.749Z,11.27
2022-10-04T03:37:22.866Z,9.27
2022-10-04T03:39:54.036Z,12.68
2022-10-04T03:42:30.140Z,13.98
2022-10-04T03:45:19.003Z,15.25
2022-10-04T03:47:48.665Z,12.90
2022-10-04T03:50:23.822Z,13.93
2022-10-04T03:53:03.435Z,12.77
2022-10-04T03:55:42.620Z,11.95
2022-10-04T03:58:16.041Z,14.10
2022-10-04T04:01:11.738Z,13.83
2022-10-04T04:04:11.718Z,11.52
2022-10-04T04:06:47.799Z,10.85
2022-10-04T04:09:26.211Z,9.07
2022-10-04T04:11:56.793Z,10.98
2022-10-04T04:14:28.227Z,13.07
2022-10-04T04:17:15.620Z,12.73
2022-10-04T04:19:42.466Z,15.68
2022-10-04T04:22:17.850Z,11.07
2022-10-04T04:24:45.471Z,12.93
2022-10-04T04:27:13.410Z,10.90
2022-10-04T04:29:50.333Z,17.05
2022-10-04T04:32:24.144Z,12.35
2022-10-04T04:34:53.414Z,12.38
2022-10-04T04:37:20.664Z,14.45
2022-10-04T04:39:52.224Z,14.40
2022-10-04T04:42:31.983Z,10.45
2022-10-04T04:45:03.411Z,10.05
2022-10-04T04:47:34.862Z,14.25
2022-10-04T04:50:35.636Z,13.57
2022-10-04T04:53:17.436Z,12.57
2022-10-04T04:56:03.289Z,10.55
2022-10-04T04:58:37.276Z,12.90
2022-10-04T05:01:11.695Z,13.27
2022-10-04T05:03:38.156Z,11.93
2022-10-04T05:06:05.034Z,12.03
2022-10-04T05:08:38.616Z,12.93
2022-10-04T05:11:08.758Z,11.63
2022-10-04T05:13:44.116Z,13.30
2022-10-04T05:16:16.773Z,13.98
2022-10-04T05:18:43.558Z,13.27
2022-10-04T05:21:28.636Z,16.48
2022-10-04T05:23:57.473Z,10.00
2022-10-04T05:26:28.747Z,12.52
2022-10-04T05:28:59.535Z,12.15
2022-10-04T05:31:34.202Z,13.83
2022-10-04T05:34:00.706Z,11.45
2022-10-04T05:36:47.247Z,12.73
2022-10-04T05:39:28.620Z,13.50
2022-10-04T05:42:04.008Z,14.05
2022-10-04T05:44:36.263Z,12.10
2022-10-04T05:47:07.419Z,13.15
2022-10-04T05:49:43.979Z,14.00
2022-10-04T05:52:36.146Z,12.88
2022-10-04T05:55:26.175Z,14.13
2022-10-04T05:58:19.531Z,14.67
2022-10-04T06:01:23.721Z,14.27
2022-10-04T06:03:53.294Z,13.38
2022-10-04T06:06:49.210Z,11.80
2022-10-04T06:09:21.582Z,13.60
2022-10-04T06:12:26.380Z,14.20
2022-10-04T06:14:56.470Z,16.33
2022-10-04T06:17:49.977Z,16.35
2022-10-04T06:20:51.541Z,10.57
2022-10-04T06:23:21.102Z,13.48
2022-10-04T06:26:13.801Z,12.73
2022-10-04T06:28:51.526Z,13.65
2022-10-04T06:31:37.192Z,12.23
2022-10-04T06:34:25.294Z,12.60
2022-10-04T06:37:12.102Z,15.32
2022-10-04T06:40:20.009Z,15.63
2022-10-04T06:42:52.103Z,14.32
2022-10-04T06:45:29.566Z,11.80
2022-10-04T06:48:27.822Z,13.65
2022-10-04T06:51:10.775Z,12.88
2022-10-04T06:54:00.738Z,12.00
2022-10-04T06:56:27.046Z,10.98
2022-10-04T06:59:11.443Z,11.13
2022-10-04T07:01:48.758Z,12.55
2022-10-04T07:04:49.923Z,11.80
2022-10-04T07:07:37.098Z,15.50
2022-10-04T07:10:30.982Z,13.07
2022-10-04T07:13:09.664Z,12.02
2022-10-04T07:15:55.660Z,11.48
2022-10-04T07:18:32.770Z,13.52
2022-10-04T07:21:06.240Z,15.07
2022-10-04T07:23:43.800Z,12.88
2022-10-04T07:26:29.492Z,11.02
2022-10-04T07:29:21.155Z,10.73
2022-10-04T07:31:51.823Z,11.73
2022-10-04T07:34:25.431Z,9.53
2022-10-04T07:36:55.816Z,8.98
2022-10-04T07:39:28.160Z,9.60
2022-10-04T07:42:15.305Z,9.43
2022-10-04T07:44:46.625Z,8.27
2022-10-04T07:47:20.206Z,10.10
2022-10-04T07:49:50.213Z,13.57
2022-10-04T07:52:58.176Z,12.50
2022-10-04T07:55:29.175Z,9.20
2022-10-04T07:58:18.438Z,8.93
2022-10-04T08:00:57.255Z,8.07
2022-10-04T08:03:45.488Z,11.38
2022-10-04T08:07:01.619Z,11.25
2022-10-04T08:09:47.677Z,11.80
2022-10-04T08:12:23.260Z,6.45
2022-10-04T08:15:15.654Z,8.80
2022-10-04T08:18:01.975Z,10.73
2022-10-04T08:20:31.146Z,8.80
2022-10-04T08:23:19.258Z,11.18
2022-10-04T08:26:12.639Z,11.07
2022-10-04T08:29:15.515Z,8.90
2022-10-04T08:31:47.893Z,7.90
2022-10-04T08:34:20.068Z,7.95
2022-10-04T08:37:03.289Z,8.30
2022-10-04T08:40:14.786Z,9.82
2022-10-04T08:43:00.504Z,8.53
2022-10-04T08:46:04.109Z,9.32
2022-10-04T08:48:49.252Z,8.73
2022-10-04T08:51:40.537Z,9.93
2022-10-04T08:54:25.112Z,6.15
2022-10-04T08:57:04.595Z,6.67
2022-10-04T09:00:00.185Z,9.45
2022-10-04T09:02:47.928Z,6.57
2022-10-04T09:05:42.428Z,7.20
2022-10-04T09:08:46.542Z,9.02
2022-10-04T09:11:43.486Z,8.07
2022-10-04T09:14:40.592Z,7.65
2022-10-04T09:17:21.793Z,8.27
2022-10-04T09:20:37.699Z,7.63
2022-10-04T09:23:23.220Z,9.25
2022-10-04T09:26:06.314Z,8.77
2022-10-04T09:28:56.067Z,8.00
2022-10-04T09:31:40.614Z,10.15
2022-10-04T09:34:17.127Z,10.32
2022-10-04T09:37:00.784Z,7.28
2022-10-04T09:40:04.053Z,8.80
2022-10-04T09:42:43.501Z,8.95
2022-10-04T09:45:53.843Z,10.20
2022-10-04T09:48:25.550Z,8.13
2022-10-04T09:51:17.281Z,7.03
2022-10-04T09:53:55.886Z,7.10
2022-10-04T09:56:49.011Z,9.50
2022-10-04T09:59:22.174Z,8.65
2022-10-04T10:02:00.820Z,8.95
2022-10-04T10:04:44.077Z,9.35
2022-10-04T10:07:52.595Z,8.20
2022-10-04T10:10:52.881Z,9.05
2022-10-04T10:13:45.540Z,9.18
2022-10-04T10:16:12.247Z,7.53
2022-10-04T10:18:54.800Z,5.90
2022-10-04T10:21:35.323Z,6.83
2022-10-04T10:24:46.310Z,8.50
2022-10-04T10:27:24.936Z,8.88
2022-10-04T10:29:56.962Z,8.68
2022-10-04T10:33:02.329Z,5.53
2022-10-04T10:35:44.020Z,7.23
2022-10-04T10:38:24.419Z,8.13
2022-10-04T10:41:35.747Z,9.00
2022-10-04T10:44:23.516Z,8.70
2022-10-04T10:47:21.039Z,7.80
2022-10-04T10:50:17.294Z,6.77
2022-10-04T10:53:05.378Z,8.48
2022-10-04T10:56:30.077Z,8.02
2022-10-04T10:59:08.654Z,5.63
2022-10-04T11:01:53.300Z,7.15
2022-10-04T11:04:28.630Z,6.63
2022-10-04T11:07:01.148Z,9.40
2022-10-04T11:09:52.476Z,5.72
2022-10-04T11:12:32.637Z,6.65
2022-10-04T11:15:05.936Z,5.60
2022-10-04T11:17:56.259Z,6.00
2022-10-04T11:20:37.614Z,6.20
2022-10-04T11:23:22.682Z,5.82
2022-10-04T11:26:24.076Z,5.05
2022-10-04T11:28:53.320Z,6.00
2022-10-04T11:31:48.748Z,4.90
2022-10-04T11:34:30.341Z,4.68
2022-10-04T11:37:16.613Z,6.70
2022-10-04T11:39:54.359Z,5.07
2022-10-04T11:42:57.985Z,6.75
2022-10-04T11:45:55.818Z,5.73
2022-10-04T11:48:43.761Z,4.40
2022-10-04T11:51:26.027Z,4.60
2022-10-04T11:54:27.466Z,5.05
2022-10-04T11:57:31.403Z,4.90
2022-10-04T12:00:16.162Z,4.90
2022-10-04T12:03:09.413Z,8.20
2022-10-04T12:05:51.117Z,5.25
2022-10-04T12:08:54.656Z,6.82
2022-10-04T12:11:56.706Z,9.60
2022-10-04T12:14:50.772Z,6.07
2022-10-04T12:17:46.117Z,7.00
2022-10-04T12:20:57.852Z,6.22
2022-10-04T12:23:41.304Z,6.82
2022-10-04T12:26:19.411Z,5.60
2022-10-04T12:29:17.388Z,7.57
2022-10-04T12:31:54.368Z,8.32
2022-10-04T12:34:36.322Z,3.60
2022-10-04T12:37:13.695Z,5.65
2022-10-04T12:39:48.081Z,6.15
2022-10-04T12:42:20.670Z,5.90
2022-10-04T12:45:06.865Z,4.50
2022-10-04T12:48:02.590Z,6.30
2022-10-04T12:51:01.596Z,5.05
2022-10-04T12:53:37.093Z,4.70
2022-10-04T12:56:22.221Z,6.27
2022-10-04T12:59:16.159Z,4.03
2022-10-04T13:02:13.019Z,4.20
2022-10-04T13:04:52.629Z,5.32
2022-10-04T13:07:47.449Z,5.78
2022-10-04T13:10:32.308Z,3.87
2022-10-04T13:13:23.741Z,5.43
2022-10-04T13:18:57.657Z,5.78
2022-10-04T13:21:36.322Z,4.90
2022-10-04T13:24:14.174Z,5.80
2022-10-04T13:26:51.863Z,6.47
2022-10-04T13:29:31.227Z,5.55
2022-10-04T13:32:42.762Z,5.47
2022-10-04T13:35:27.875Z,13.68
2022-10-04T13:38:32.574Z,6.67
2022-10-04T13:41:19.681Z,6.78
2022-10-04T13:44:04.386Z,7.28
2022-10-04T13:46:54.189Z,6.03
2022-10-04T13:49:36.744Z,4.20
2022-10-04T13:52:59.130Z,6.67
2022-10-04T13:55:50.125Z,5.70
2022-10-04T13:58:29.374Z,7.15
2022-10-04T14:01:33.306Z,6.65
2022-10-04T14:04:08.888Z,5.85
2022-10-04T14:07:07.088Z,7.40
2022-10-04T14:09:46.797Z,6.63
2022-10-04T14:12:46.561Z,6.30
2022-10-04T14:15:38.207Z,7.15
2022-10-04T14:18:42.429Z,5.90
2022-10-04T14:21:32.172Z,6.00
2022-10-04T14:24:01.297Z,4.47
2022-10-04T14:26:41.682Z,6.53
2022-10-04T14:29:35.181Z,6.03
2022-10-04T14:32:42.937Z,4.63
2022-10-04T14:35:34.702Z,4.90
2022-10-04T14:38:29.563Z,7.28
2022-10-04T14:41:22.777Z,6.63
2022-10-04T14:43:58.965Z,8.10
2022-10-04T14:46:40.666Z,8.05
2022-10-04T14:49:25.646Z,8.20
2022-10-04T14:52:14.324Z,10.27
2022-10-04T14:54:54.022Z,9.43
2022-10-04T14:58:01.900Z,7.97
2022-10-04T15:00:54.600Z,10.20
2022-10-04T15:03:28.896Z,6.40
2022-10-04T15:06:10.846Z,7.32
2022-10-04T15:08:37.385Z,3.50
2022-10-04T15:11:11.590Z,7.38
2022-10-04T15:14:01.357Z,4.43
2022-10-04T15:16:43.986Z,6.50
2022-10-04T15:19:19.400Z,4.90
2022-10-04T15:22:06.655Z,8.38
2022-10-04T15:24:39.427Z,6.15
2022-10-04T15:27:28.179Z,5.18
2022-10-04T15:30:03.798Z,5.47
2022-10-04T15:33:06.497Z,5.53
2022-10-04T15:35:41.422Z,7.75
2022-10-04T15:38:19.919Z,4.63
2022-10-04T15:41:04.549Z,5.05
2022-10-04T15:43:42.715Z,5.17
2022-10-04T15:46:27.800Z,6.80
2022-10-04T15:49:19.467Z,8.57
2022-10-04T15:52:21.425Z,6.35
2022-10-04T15:55:24.787Z,4.10
2022-10-04T15:58:36.673Z,4.23
2022-10-04T16:01:38.107Z,5.60
2022-10-04T16:04:30.927Z,5.50
2022-10-04T16:07:06.572Z,6.10
2022-10-04T16:09:37.448Z,5.20
2022-10-04T16:12:23.224Z,4.97
2022-10-04T16:15:31.668Z,6.05
2022-10-04T16:18:38.525Z,6.00
2022-10-04T16:21:25.535Z,7.07
2022-10-04T16:24:32.261Z,4.82
2022-10-04T16:27:29.117Z,7.77
2022-10-04T16:30:27.515Z,8.23
2022-10-04T16:33:37.013Z,5.70
2022-10-04T16:36:21.934Z,6.45
2022-10-04T16:39:12.878Z,5.35
2022-10-04T16:42:00.825Z,6.60
2022-10-04T16:44:36.638Z,6.40
2022-10-04T16:47:37.188Z,6.20
2022-10-04T16:50:07.065Z,6.95
2022-10-04T16:52:44.083Z,3.80
2022-10-04T16:55:10.334Z,5.90
2022-10-04T16:57:37.438Z,5.50
2022-10-04T17:00:36.230Z,5.85
2022-10-04T17:03:15.961Z,3.72
2022-10-04T17:05:59.010Z,3.92
2022-10-04T17:08:43.022Z,8.10
2022-10-04T17:11:33.692Z,10.25
2022-10-04T17:14:22.233Z,6.70
2022-10-04T17:16:57.949Z,6.10
2022-10-04T17:19:37.656Z,5.78
2022-10-04T17:22:46.207Z,6.10
2022-10-04T17:25:33.197Z,6.75
2022-10-04T17:28:14.590Z,4.85
2022-10-04T17:30:58.852Z,7.93
2022-10-04T17:33:36.448Z,5.63
2022-10-04T17:36:14.144Z,5.73
2022-10-04T17:39:04.059Z,6.18
2022-10-04T17:41:33.443Z,5.53
2022-10-04T17:44:45.237Z,5.53
2022-10-04T17:47:49.313Z,6.57
2022-10-04T17:50:39.135Z,6.87
2022-10-04T17:53:33.507Z,8.02
2022-10-04T17:56:02.437Z,5.05
2022-10-04T17:58:39.737Z,6.57
2022-10-04T18:01:25.581Z,5.47
2022-10-04T18:03:58.704Z,4.27
2022-10-04T18:06:35.729Z,5.75
2022-10-04T18:09:10.545Z,4.90
2022-10-04T18:12:11.993Z,5.90
2022-10-04T18:15:07.402Z,5.60
2022-10-04T18:17:48.038Z,6.00
2022-10-04T18:20:27.700Z,6.72
2022-10-04T18:23:12.096Z,6.60
2022-10-04T18:25:41.214Z,5.35
2022-10-04T18:28:07.562Z,5.85
2022-10-04T18:30:51.178Z,6.17
2022-10-04T18:33:41.091Z,6.88
2022-10-04T18:36:27.270Z,6.10
2022-10-04T18:39:14.317Z,7.22
2022-10-04T18:41:53.997Z,5.72
2022-10-04T18:44:27.403Z,4.17
2022-10-04T18:46:56.973Z,7.57
2022-10-04T18:49:27.205Z,6.45
2022-10-04T18:52:12.081Z,6.25
2022-10-04T18:55:04.390Z,6.25
2022-10-04T18:58:00.071Z,5.53
2022-10-04T19:00:56.529Z,5.80
2022-10-04T19:03:37.855Z,7.68
2022-10-04T19:06:16.330Z,6.60
2022-10-04T19:09:01.768Z,4.57
2022-10-04T19:12:06.194Z,6.70
2022-10-04T19:14:40.729Z,5.65
2022-10-04T19:17:22.844Z,6.32
2022-10-04T19:19:57.008Z,6.30
2022-10-04T19:22:30.601Z,5.82
2022-10-04T19:25:12.337Z,5.53
2022-10-04T19:28:00.644Z,7.18
2022-10-04T19:30:48.227Z,7.30
2022-10-04T19:33:48.388Z,4.85
2022-10-04T19:36:45.376Z,5.20
2022-10-04T19:39:41.957Z,4.37
2022-10-04T19:42:12.977Z,4.40
2022-10-04T19:45:47.230Z,5.07
2022-10-04T19:48:24.620Z,5.05
2022-10-04T19:51:02.618Z,6.22
2022-10-04T19:53:45.607Z,5.83
2022-10-04T19:56:21.973Z,6.70
2022-10-04T19:59:01.448Z,7.95
2022-10-04T20:01:29.835Z,5.28
2022-10-04T20:04:15.406Z,7.13
2022-10-04T20:06:55.196Z,6.03
2022-10-04T20:09:41.026Z,5.25
2022-10-04T20:12:29.781Z,4.22
2022-10-04T20:15:25.097Z,7.10
2022-10-04T20:17:54.450Z,4.82
2022-10-04T20:20:56.949Z,5.10
2022-10-04T20:23:38.998Z,4.50
2022-10-04T20:26:10.418Z,6.30
2022-10-04T20:28:40.537Z,7.00
2022-10-04T20:31:26.278Z,5.70
2022-10-04T20:33:52.770Z,4.87
2022-10-04T20:36:19.070Z,5.18
2022-10-04T20:38:51.587Z,5.95
2022-10-04T20:41:50.125Z,4.65
2022-10-04T20:44:46.822Z,6.20
2022-10-04T20:47:24.171Z,5.20
2022-10-04T20:49:53.054Z,6.45
2022-10-04T20:52:22.486Z,6.13
2022-10-04T20:54:52.232Z,5.03
2022-10-04T20:57:23.737Z,8.38
2022-10-04T20:59:55.524Z,8.60
2022-10-04T21:02:24.308Z,5.40
2022-10-04T21:04:53.366Z,5.05
2022-10-04T21:07:22.997Z,5.05
2022-10-04T21:09:50.472Z,5.55
2022-10-04T21:12:37.516Z,6.83
2022-10-04T21:15:19.146Z,5.45
2022-10-04T21:18:03.778Z,6.22
2022-10-04T21:20:53.443Z,6.30
2022-10-04T21:23:29.743Z,5.75
2022-10-04T21:26:22.002Z,8.43
2022-10-04T21:28:58.383Z,7.00
2022-10-04T21:31:25.173Z,5.57
2022-10-04T21:33:51.684Z,6.55
2022-10-04T21:36:18.052Z,5.63
2022-10-04T21:38:44.497Z,6.27
2022-10-04T21:41:10.870Z,7.47
2022-10-04T21:43:37.258Z,5.75
2022-10-04T21:46:03.677Z,5.55
2022-10-04T21:48:30.111Z,6.32
2022-10-04T21:50:56.523Z,5.30
2022-10-04T21:53:22.986Z,5.55
2022-10-04T21:55:49.709Z,6.50
2022-10-04T21:58:16.130Z,6.78
2022-10-04T22:00:42.691Z,5.88
2022-10-04T22:03:11.177Z,6.20
2022-10-04T22:05:37.619Z,8.77
2022-10-04T22:08:05.552Z,7.95
2022-10-04T22:10:31.970Z,9.43
2022-10-04T22:12:58.405Z,6.80
2022-10-04T22:15:26.258Z,6.00
2022-10-04T22:17:52.743Z,7.97
2022-10-04T22:20:19.316Z,5.50
2022-10-04T22:22:45.840Z,8.93
2022-10-04T22:25:18.754Z,8.05
2022-10-04T22:27:46.420Z,7.00
2022-10-04T22:30:27.943Z,6.88
2022-10-04T22:33:00.247Z,11.73
2022-10-04T22:35:30.703Z,8.70
2022-10-04T22:37:57.064Z,6.30
2022-10-04T22:40:25.544Z,6.67
2022-10-04T22:42:54.147Z,7.03
2022-10-04T22:45:25.779Z,6.53
2022-10-04T22:47:53.369Z,7.68
2022-10-04T22:50:35.051Z,6.40
2022-10-04T22:53:12.467Z,8.40
2022-10-04T22:55:41.188Z,6.70
2022-10-04T22:58:12.719Z,10.32
2022-10-04T23:00:39.342Z,8.40
2022-10-04T23:03:27.192Z,7.22
2022-10-04T23:05:53.685Z,9.33
2022-10-04T23:08:20.120Z,7.93
2022-10-04T23:10:46.582Z,7.28
2022-10-04T23:13:12.924Z,7.68
2022-10-04T23:15:39.605Z,6.25
2022-10-04T23:18:15.727Z,6.83
2022-10-04T23:20:42.576Z,6.82
2022-10-04T23:23:18.265Z,9.52
2022-10-04T23:25:47.011Z,10.32
2022-10-04T23:28:18.832Z,9.45
2022-10-04T23:30:48.333Z,7.60
2022-10-04T23:33:21.170Z,5.97
2022-10-04T23:35:50.939Z,8.65
2022-10-04T23:38:20.196Z,7.65
2022-10-04T23:40:46.764Z,6.75
2022-10-04T23:43:20.526Z,8.93
2022-10-04T23:45:47.211Z,6.60
2022-10-04T23:48:22.699Z,7.68
2022-10-04T23:50:50.027Z,9.73
2022-10-04T23:53:26.434Z,6.20
2022-10-04T23:55:54.965Z,9.97
2022-10-04T23:58:23.814Z,7.70
